createdAt,value
2022-10-28T00:00:50.939Z,18.20
2022-10-28T00:03:42.093Z,18.20
2022-10-28T00:06:30.419Z,18.10
2022-10-28T00:09:16.222Z,18.10
2022-10-28T00:12:01.729Z,18.10
2022-10-28T00:14:47.100Z,18.10
2022-10-28T00:17:32.686Z,17.60
2022-10-28T00:20:18.152Z,17.50
2022-10-28T00:23:03.926Z,17.50
2022-10-28T00:25:49.403Z,17.30
2022-10-28T00:28:34.876Z,17.40
2022-10-28T00:31:22.899Z,17.30
2022-10-28T00:34:14.718Z,17.50
2022-10-28T00:37:00.566Z,17.60
2022-10-28T00:39:46.514Z,17.60
2022-10-28T00:42:32.310Z,17.10
2022-10-28T00:45:17.695Z,16.70
2022-10-28T00:48:06.101Z,16.70
2022-10-28T00:50:52.008Z,16.80
2022-10-28T00:53:39.895Z,16.80
2022-10-28T00:56:30.736Z,16.60
2022-10-28T00:59:24.879Z,16.70
2022-10-28T01:02:10.676Z,16.50
2022-10-28T01:04:56.635Z,16.40
2022-10-28T01:07:42.776Z,16.40
2022-10-28T01:11:07.207Z,16.50
2022-10-28T01:13:58.980Z,16.80
2022-10-28T01:16:47.825Z,16.90
2022-10-28T01:20:27.383Z,17.00
2022-10-28T01:23:31.727Z,17.00
2022-10-28T01:26:51.286Z,16.90
2022-10-28T01:30:00.148Z,17.00
2022-10-28T01:33:14.247Z,17.00
2022-10-28T01:36:41.320Z,17.00
2022-10-28T01:39:51.020Z,16.90
2022-10-28T01:43:04.295Z,16.80
2022-10-28T01:45:55.679Z,16.90
2022-10-28T01:49:01.276Z,16.80
2022-10-28T01:51:50.810Z,16.90
2022-10-28T01:54:38.567Z,16.80
2022-10-28T01:57:27.512Z,16.90
2022-10-28T02:00:13.584Z,16.80
2022-10-28T02:02:59.276Z,16.90
2022-10-28T02:05:50.747Z,17.00
2022-10-28T02:08:57.719Z,17.00
2022-10-28T02:12:02.948Z,16.90
2022-10-28T02:15:39.356Z,17.00
2022-10-28T02:18:35.959Z,17.10
2022-10-28T02:22:00.054Z,17.10
2022-10-28T02:24:47.991Z,17.10
2022-10-28T02:27:52.463Z,17.10
2022-10-28T02:31:00.336Z,17.10
2022-10-28T02:33:49.730Z,17.10
2022-10-28T02:36:40.682Z,17.00
2022-10-28T02:39:32.820Z,17.00
2022-10-28T02:42:27.388Z,17.00
2022-10-28T02:45:18.401Z,17.00
2022-10-28T02:48:09.855Z,17.00
2022-10-28T02:51:06.054Z,17.00
2022-10-28T02:54:06.417Z,16.90
2022-10-28T02:57:02.253Z,16.80
2022-10-28T02:59:59.872Z,16.70
2022-10-28T03:02:47.317Z,16.70
2022-10-28T03:05:32.804Z,16.70
2022-10-28T03:08:18.451Z,16.70
2022-10-28T03:11:03.738Z,16.80
2022-10-28T03:13:49.203Z,16.70
2022-10-28T03:16:34.722Z,16.80
2022-10-28T03:19:20.363Z,16.80
2022-10-28T03:22:05.833Z,16.80
2022-10-28T03:24:51.980Z,16.70
2022-10-28T03:27:41.285Z,16.70
2022-10-28T03:30:27.140Z,16.70
2022-10-28T03:33:12.708Z,16.70
2022-10-28T03:35:58.461Z,16.70
2022-10-28T03:38:43.839Z,16.70
2022-10-28T03:41:29.219Z,16.70
2022-10-28T03:44:14.812Z,16.70
2022-10-28T03:47:00.697Z,16.60
2022-10-28T03:49:46.269Z,16.60
2022-10-28T03:52:31.588Z,16.60
2022-10-28T03:55:17.289Z,16.60
2022-10-28T03:58:03.212Z,16.60
2022-10-28T04:00:50.173Z,16.70
2022-10-28T04:03:35.620Z,16.60
2022-10-28T04:06:21.150Z,16.60
2022-10-28T04:09:06.926Z,16.50
2022-10-28T04:11:52.716Z,16.50
2022-10-28T04:14:38.052Z,16.60
2022-10-28T04:17:23.743Z,16.60
2022-10-28T04:20:09.755Z,16.70
2022-10-28T04:22:57.212Z,16.70
2022-10-28T04:25:44.658Z,16.70
2022-10-28T04:28:30.415Z,16.70
2022-10-28T04:31:16.349Z,16.70
2022-10-28T04:34:02.084Z,16.60
2022-10-28T04:36:48.013Z,16.60
2022-10-28T04:39:34.528Z,16.60
2022-10-28T04:42:20.439Z,16.40
2022-10-28T04:45:07.039Z,16.50
2022-10-28T04:47:58.295Z,16.60
2022-10-28T04:50:43.989Z,16.20
2022-10-28T04:53:29.771Z,16.40
2022-10-28T04:56:15.239Z,16.20
2022-10-28T04:59:00.824Z,16.40
2022-10-28T05:01:47.514Z,16.60
2022-10-28T05:04:33.274Z,16.80
2022-10-28T05:07:21.378Z,16.80
2022-10-28T05:10:09.395Z,16.80
2022-10-28T05:12:54.901Z,16.80
2022-10-28T05:15:40.462Z,16.90
2022-10-28T05:18:25.838Z,16.80
2022-10-28T05:21:11.501Z,16.90
2022-10-28T05:23:57.055Z,16.80
2022-10-28T05:26:42.577Z,16.80
2022-10-28T05:29:33.030Z,16.80
2022-10-28T05:32:18.873Z,16.80
2022-10-28T05:35:05.095Z,16.70
2022-10-28T05:37:50.898Z,16.70
2022-10-28T05:40:36.393Z,16.60
2022-10-28T05:43:21.908Z,16.70
2022-10-28T05:46:07.856Z,16.70
2022-10-28T05:48:53.288Z,16.80
2022-10-28T05:51:39.248Z,16.70
2022-10-28T05:54:24.990Z,16.70
2022-10-28T05:57:10.684Z,16.70
2022-10-28T05:59:56.559Z,16.60
2022-10-28T06:02:42.446Z,16.50
2022-10-28T06:05:27.929Z,16.40
2022-10-28T06:08:14.234Z,16.30
2022-10-28T06:10:57.950Z,16.30
2022-10-28T06:13:43.859Z,16.10
2022-10-28T06:16:29.242Z,16.10
2022-10-28T06:19:14.834Z,16.10
2022-10-28T06:22:00.871Z,16.40
2022-10-28T06:24:46.228Z,16.40
2022-10-28T06:27:31.732Z,16.40
2022-10-28T06:30:17.415Z,16.50
2022-10-28T06:33:03.355Z,16.60
2022-10-28T06:35:48.886Z,16.60
2022-10-28T06:38:34.520Z,16.70
2022-10-28T06:41:20.374Z,16.60
2022-10-28T06:44:05.982Z,16.80
2022-10-28T06:46:53.130Z,16.90
2022-10-28T06:49:38.601Z,17.00
2022-10-28T06:52:24.001Z,16.90
2022-10-28T06:55:09.860Z,16.80
2022-10-28T06:58:00.464Z,16.80
2022-10-28T07:00:47.261Z,17.00
2022-10-28T07:03:33.591Z,17.20
2022-10-28T07:06:19.681Z,17.40
2022-10-28T07:09:05.656Z,17.60
2022-10-28T07:11:54.982Z,18.00
2022-10-28T07:14:41.060Z,18.30
2022-10-28T07:17:27.028Z,18.80
2022-10-28T07:20:12.662Z,19.20
2022-10-28T07:23:02.415Z,19.60
2022-10-28T07:25:56.220Z,19.90
2022-10-28T07:28:42.942Z,20.20
2022-10-28T07:31:28.535Z,20.60
2022-10-28T07:34:14.417Z,20.90
2022-10-28T07:37:00.692Z,21.20
2022-10-28T07:39:46.299Z,21.40
2022-10-28T07:42:33.877Z,21.80
2022-10-28T07:45:19.591Z,22.10
2022-10-28T07:48:06.639Z,22.30
2022-10-28T07:50:52.271Z,22.40
2022-10-28T07:53:38.168Z,22.40
2022-10-28T07:56:24.260Z,22.40
2022-10-28T07:59:09.846Z,22.60
2022-10-28T08:01:55.493Z,22.90
2022-10-28T08:04:41.701Z,23.10
2022-10-28T08:07:27.754Z,23.60
2022-10-28T08:10:13.779Z,24.00
2022-10-28T08:13:00.821Z,24.40
2022-10-28T08:15:56.159Z,25.30
2022-10-28T08:18:42.351Z,25.70
2022-10-28T08:21:27.986Z,24.60
2022-10-28T08:24:13.559Z,24.00
2022-10-28T08:26:59.493Z,24.50
2022-10-28T08:29:44.812Z,22.70
2022-10-28T08:32:30.426Z,23.00
2022-10-28T08:35:16.154Z,23.90
2022-10-28T08:38:02.646Z,25.00
2022-10-28T08:41:06.678Z,25.40
2022-10-28T08:44:25.947Z,23.70
2022-10-28T08:47:30.184Z,22.90
2022-10-28T08:50:21.322Z,23.30
2022-10-28T08:53:27.030Z,24.00
2022-10-28T08:56:36.404Z,24.60
2022-10-28T08:59:31.393Z,25.20
2022-10-28T09:02:26.369Z,25.30
2022-10-28T09:05:19.372Z,25.10
2022-10-28T09:08:07.800Z,22.40
2022-10-28T09:11:01.972Z,22.80
2022-10-28T09:14:06.474Z,25.50
2022-10-28T09:17:10.430Z,26.60
2022-10-28T09:20:25.968Z,27.20
2022-10-28T09:23:34.444Z,26.80
2022-10-28T09:26:47.994Z,25.30
2022-10-28T09:30:23.254Z,23.50
2022-10-28T09:33:23.881Z,24.80
2022-10-28T09:36:20.735Z,26.00
2022-10-28T09:39:14.130Z,26.40
2022-10-28T09:42:02.687Z,25.60
2022-10-28T09:44:54.523Z,25.30
2022-10-28T09:47:48.281Z,26.00
2022-10-28T09:50:34.277Z,26.10
2022-10-28T09:53:44.842Z,26.20
2022-10-28T09:56:31.088Z,25.60
2022-10-28T09:59:17.050Z,25.00
2022-10-28T10:02:04.119Z,24.80
2022-10-28T10:04:49.904Z,24.40
2022-10-28T10:07:39.561Z,24.40
2022-10-28T10:10:56.153Z,24.50
2022-10-28T10:13:43.848Z,24.40
2022-10-28T10:16:46.130Z,23.90
2022-10-28T10:19:57.799Z,23.70
2022-10-28T10:22:46.044Z,24.10
2022-10-28T10:25:32.486Z,24.00
2022-10-28T10:28:18.415Z,23.80
2022-10-28T10:31:06.007Z,23.70
2022-10-28T10:33:57.350Z,23.80
2022-10-28T10:36:50.931Z,23.30
2022-10-28T10:39:38.315Z,23.60
2022-10-28T10:42:25.529Z,24.20
2022-10-28T10:45:27.777Z,23.90
2022-10-28T10:48:15.215Z,23.70
2022-10-28T10:51:12.452Z,23.70
2022-10-28T10:54:01.632Z,23.60
2022-10-28T10:56:47.494Z,24.10
2022-10-28T10:59:34.908Z,24.10
2022-10-28T11:02:32.416Z,24.10
2022-10-28T11:05:27.014Z,23.70
2022-10-28T11:08:33.132Z,23.80
2022-10-28T11:11:23.416Z,23.40
2022-10-28T11:14:14.624Z,23.00
2022-10-28T11:17:02.276Z,23.50
2022-10-28T11:19:50.712Z,23.50
2022-10-28T11:22:54.538Z,23.50
2022-10-28T11:25:50.788Z,23.40
2022-10-28T11:28:42.464Z,23.90
2022-10-28T11:31:46.232Z,24.60
2022-10-28T11:34:55.163Z,23.90
2022-10-28T11:38:04.070Z,24.00
2022-10-28T11:41:10.875Z,23.60
2022-10-28T11:44:04.723Z,23.50
2022-10-28T11:47:11.767Z,23.30
2022-10-28T11:50:09.950Z,23.30
2022-10-28T11:53:10.467Z,23.20
2022-10-28T11:56:08.750Z,23.40
2022-10-28T11:59:00.279Z,23.20
2022-10-28T12:02:23.146Z,23.50
2022-10-28T12:05:28.127Z,23.20
2022-10-28T12:08:44.565Z,23.30
2022-10-28T12:11:47.160Z,23.50
2022-10-28T12:14:49.395Z,23.40
2022-10-28T12:17:51.026Z,23.20
2022-10-28T12:20:48.104Z,23.20
2022-10-28T12:23:35.712Z,23.10
2022-10-28T12:26:32.932Z,23.00
2022-10-28T12:29:33.716Z,23.00
2022-10-28T12:32:33.464Z,23.30
2022-10-28T12:35:21.736Z,23.50
2022-10-28T12:38:57.580Z,23.20
2022-10-28T12:42:13.619Z,23.50
2022-10-28T12:45:03.829Z,23.50
2022-10-28T12:48:04.733Z,23.40
2022-10-28T12:50:58.372Z,23.40
2022-10-28T12:54:26.569Z,23.10
2022-10-28T12:57:19.376Z,23.30
2022-10-28T13:00:17.811Z,23.40
2022-10-28T13:03:12.102Z,23.50
2022-10-28T13:06:14.145Z,23.40
2022-10-28T13:09:14.744Z,23.00
2022-10-28T13:12:38.463Z,23.20
2022-10-28T13:15:59.247Z,23.20
2022-10-28T13:18:53.584Z,23.00
2022-10-28T13:22:18.011Z,23.20
2022-10-28T13:25:34.213Z,24.00
2022-10-28T13:28:22.003Z,24.00
2022-10-28T13:31:08.415Z,24.40
2022-10-28T13:33:57.994Z,24.40
2022-10-28T13:36:57.729Z,24.30
2022-10-28T13:39:46.242Z,24.40
2022-10-28T13:42:46.158Z,24.20
2022-10-28T13:45:48.449Z,23.70
2022-10-28T13:48:42.926Z,23.30
2022-10-28T13:51:32.248Z,23.30
2022-10-28T13:54:52.366Z,23.80
2022-10-28T13:57:40.666Z,23.80
2022-10-28T14:00:26.221Z,23.30
2022-10-28T14:03:21.528Z,23.10
2022-10-28T14:06:07.355Z,23.10
2022-10-28T14:08:53.005Z,23.60
2022-10-28T14:11:38.639Z,23.60
2022-10-28T14:14:24.060Z,23.30
2022-10-28T14:17:22.082Z,23.40
2022-10-28T14:20:28.159Z,23.80
2022-10-28T14:23:22.774Z,24.10
2022-10-28T14:26:08.232Z,23.80
2022-10-28T14:28:55.011Z,23.70
2022-10-28T14:31:42.440Z,23.50
2022-10-28T14:34:36.423Z,23.20
2022-10-28T14:37:42.727Z,23.30
2022-10-28T14:40:43.541Z,23.10
2022-10-28T14:43:38.230Z,23.40
2022-10-28T14:46:39.293Z,23.50
2022-10-28T14:49:30.505Z,23.50
2022-10-28T14:52:18.955Z,23.50
2022-10-28T14:55:08.647Z,23.60
2022-10-28T14:57:54.534Z,23.50
2022-10-28T15:00:49.486Z,23.30
2022-10-28T15:03:35.477Z,23.20
2022-10-28T15:06:28.835Z,23.10
2022-10-28T15:09:29.705Z,23.20
2022-10-28T15:12:17.640Z,23.10
2022-10-28T15:15:03.452Z,23.10
2022-10-28T15:17:51.176Z,23.20
2022-10-28T15:20:37.154Z,23.10
2022-10-28T15:23:23.837Z,23.10
2022-10-28T15:26:14.381Z,23.00
2022-10-28T15:29:01.222Z,22.90
2022-10-28T15:32:20.857Z,22.90
2022-10-28T15:35:45.351Z,22.80
2022-10-28T15:38:39.848Z,22.80
2022-10-28T15:41:25.474Z,22.70
2022-10-28T15:44:46.192Z,22.60
2022-10-28T15:47:37.159Z,22.60
2022-10-28T15:50:34.059Z,22.20
2022-10-28T15:53:37.406Z,22.50
2022-10-28T15:56:24.409Z,22.50
2022-10-28T15:59:22.259Z,22.30
2022-10-28T16:02:43.157Z,22.20
2022-10-28T16:05:34.819Z,22.20
2022-10-28T16:08:34.764Z,22.10
2022-10-28T16:11:20.661Z,22.10
2022-10-28T16:14:19.777Z,21.90
2022-10-28T16:17:24.231Z,21.90
2022-10-28T16:20:19.719Z,21.90
2022-10-28T16:23:05.667Z,21.90
2022-10-28T16:25:51.826Z,21.90
2022-10-28T16:28:38.149Z,21.90
2022-10-28T16:31:29.422Z,21.80
2022-10-28T16:34:15.343Z,21.70
2022-10-28T16:37:01.032Z,21.60
2022-10-28T16:39:46.558Z,21.60
2022-10-28T16:42:32.139Z,21.80
2022-10-28T16:45:18.772Z,21.90
2022-10-28T16:48:08.991Z,21.70
2022-10-28T16:51:10.438Z,21.80
2022-10-28T16:53:55.991Z,21.90
2022-10-28T16:56:41.709Z,22.00
2022-10-28T16:59:27.172Z,21.90
2022-10-28T17:02:30.685Z,21.70
2022-10-28T17:05:20.712Z,21.50
2022-10-28T17:08:09.761Z,21.60
2022-10-28T17:10:55.611Z,21.30
2022-10-28T17:13:41.157Z,21.20
2022-10-28T17:16:26.815Z,21.00
2022-10-28T17:19:12.359Z,20.90
2022-10-28T17:21:57.974Z,20.80
2022-10-28T17:24:43.594Z,20.60
2022-10-28T17:27:29.092Z,20.60
2022-10-28T17:30:17.530Z,20.50
2022-10-28T17:33:03.551Z,20.40
2022-10-28T17:35:49.217Z,20.10
2022-10-28T17:38:35.348Z,20.10
2022-10-28T17:41:20.832Z,20.30
2022-10-28T17:44:06.307Z,20.30
2022-10-28T17:46:52.250Z,20.40
2022-10-28T17:49:37.962Z,20.40
2022-10-28T17:52:24.477Z,20.30
2022-10-28T17:55:10.373Z,20.20
2022-10-28T17:57:57.220Z,20.10
2022-10-28T18:00:42.956Z,20.00
2022-10-28T18:03:31.687Z,20.00
2022-10-28T18:06:21.066Z,20.00
2022-10-28T18:09:11.686Z,19.90
2022-10-28T18:11:57.728Z,19.80
2022-10-28T18:14:43.125Z,19.50
2022-10-28T18:17:28.724Z,19.50
2022-10-28T18:20:14.898Z,19.50
2022-10-28T18:23:00.660Z,19.50
2022-10-28T18:25:46.266Z,19.50
2022-10-28T18:28:33.964Z,19.40
2022-10-28T18:31:20.527Z,19.30
2022-10-28T18:34:06.813Z,19.20
2022-10-28T18:36:52.451Z,19.20
2022-10-28T18:39:38.339Z,19.10
2022-10-28T18:42:24.369Z,19.00
2022-10-28T18:45:09.797Z,19.00
2022-10-28T18:47:55.672Z,18.90
2022-10-28T18:50:43.494Z,18.80
2022-10-28T18:53:31.264Z,18.70
2022-10-28T18:56:22.809Z,18.70
2022-10-28T18:59:08.586Z,18.80
2022-10-28T19:01:54.256Z,18.90
2022-10-28T19:04:39.635Z,18.70
2022-10-28T19:07:25.169Z,18.70
2022-10-28T19:10:10.927Z,18.70
2022-10-28T19:12:57.519Z,18.60
2022-10-28T19:15:47.153Z,18.40
2022-10-28T19:18:38.148Z,18.50
2022-10-28T19:21:24.358Z,18.40
2022-10-28T19:24:09.884Z,18.40
2022-10-28T19:26:55.400Z,18.30
2022-10-28T19:29:40.921Z,18.50
2022-10-28T19:32:26.886Z,18.60
2022-10-28T19:35:12.568Z,18.70
2022-10-28T19:37:57.884Z,18.80
2022-10-28T19:40:43.487Z,18.80
2022-10-28T19:43:28.858Z,18.80
2022-10-28T19:46:18.489Z,18.70
2022-10-28T19:49:07.282Z,18.70
2022-10-28T19:51:53.016Z,18.70
2022-10-28T19:54:38.596Z,18.60
2022-10-28T19:57:24.579Z,18.40
2022-10-28T20:00:10.474Z,18.40
2022-10-28T20:02:58.915Z,18.40
2022-10-28T20:05:44.464Z,18.40
2022-10-28T20:08:30.432Z,18.30
2022-10-28T20:11:21.464Z,18.20
2022-10-28T20:14:12.645Z,18.20
2022-10-28T20:17:05.439Z,18.10
2022-10-28T20:19:52.053Z,18.10
2022-10-28T20:22:42.219Z,18.10
2022-10-28T20:25:28.936Z,18.10
2022-10-28T20:28:14.523Z,18.00
2022-10-28T20:31:08.419Z,18.00
2022-10-28T20:33:57.741Z,18.00
2022-10-28T20:36:46.463Z,18.00
2022-10-28T20:39:32.800Z,18.00
2022-10-28T20:42:18.427Z,18.00
2022-10-28T20:45:04.200Z,17.90
2022-10-28T20:47:52.739Z,17.90
2022-10-28T20:50:38.475Z,17.80
2022-10-28T20:53:26.007Z,17.90
2022-10-28T20:56:38.632Z,17.80
2022-10-28T20:59:24.338Z,17.90
2022-10-28T21:02:10.254Z,17.90
2022-10-28T21:04:56.001Z,17.80
2022-10-28T21:07:42.128Z,17.90
2022-10-28T21:10:27.760Z,17.90
2022-10-28T21:13:13.188Z,17.50
2022-10-28T21:15:58.704Z,17.40
2022-10-28T21:18:44.286Z,17.50
2022-10-28T21:21:30.950Z,17.60
2022-10-28T21:24:16.433Z,17.90
2022-10-28T21:27:01.933Z,17.90
2022-10-28T21:29:47.461Z,17.90
2022-10-28T21:32:37.344Z,17.90
2022-10-28T21:35:23.731Z,17.90
2022-10-28T21:38:11.030Z,17.80
2022-10-28T21:41:03.762Z,17.70
2022-10-28T21:43:52.302Z,17.70
2022-10-28T21:46:38.974Z,17.70
2022-10-28T21:49:24.593Z,17.70
2022-10-28T21:52:10.264Z,17.70
2022-10-28T21:54:55.784Z,17.70
2022-10-28T21:57:41.580Z,17.60
2022-10-28T22:00:27.238Z,17.60
2022-10-28T22:03:14.328Z,17.60
2022-10-28T22:06:00.745Z,17.50
2022-10-28T22:08:46.931Z,17.50
2022-10-28T22:11:32.438Z,17.40
2022-10-28T22:14:17.978Z,17.30
2022-10-28T22:17:03.540Z,17.30
2022-10-28T22:19:49.167Z,17.30
2022-10-28T22:22:35.733Z,17.30
2022-10-28T22:25:21.618Z,17.40
2022-10-28T22:28:07.646Z,17.40
2022-10-28T22:30:59.020Z,17.30
2022-10-28T22:36:35.850Z,17.40
2022-10-28T22:39:22.601Z,17.30
2022-10-28T22:42:08.063Z,17.30
2022-10-28T22:44:53.806Z,17.20
2022-10-28T22:47:39.273Z,17.20
2022-10-28T22:50:24.863Z,17.10
2022-10-28T22:53:10.581Z,17.10
2022-10-28T22:55:56.588Z,17.00
2022-10-28T22:58:42.053Z,17.10
2022-10-28T23:01:28.914Z,17.10
2022-10-28T23:04:14.560Z,17.10
2022-10-28T23:07:00.167Z,17.20
2022-10-28T23:09:45.541Z,17.30
2022-10-28T23:12:31.097Z,17.00
2022-10-28T23:15:16.656Z,17.10
2022-10-28T23:18:03.322Z,17.20
2022-10-28T23:20:48.703Z,17.10
2022-10-28T23:23:34.364Z,17.10
2022-10-28T23:26:19.835Z,17.20
2022-10-28T23:29:05.649Z,17.10
2022-10-28T23:31:51.058Z,17.20
2022-10-28T23:34:36.498Z,17.20
2022-10-28T23:37:22.105Z,17.10
2022-10-28T23:43:00.531Z,17.10
2022-10-28T23:45:46.133Z,17.10
2022-10-28T23:48:31.737Z,16.90
2022-10-28T23:51:19.289Z,17.00
2022-10-28T23:54:05.285Z,17.00
2022-10-28T23:56:51.887Z,16.80
2022-10-28T23:59:37.369Z,16.90
